Aérodrome :
LOGIN :

S'inscrire | Disclaimer

   EN    FR    IT 

 










Légende :    VFR   VFR Marginal   IFR   IFR Intensif   IFR Très Intensif
Visi : 
Plafond : 
>= 8 km
>= 3000ft
5 à 8 km
1000 à 3000 ft
1500m à 5 km
500 à 1000 ft
800 à 1500m
200 à 500 ft
< 800m
< 200 ft
Symboles :   Orages  Brouillard  Fortes neiges  Fortes précipitations  Vent > 20 kt
SIGMETs :   Divers  Orages  Givrage  Turbulence  Onde Orograph.  Cendres Volcan.






- Altitude de l'aérodrome : 404 ft
- Code IATA : WRO


EPWR - Wroclaw

DERNIER METAR :
  • 142130Z 12013KT 6000 BKN005 04/03 Q1013

METARs EXPIRÉS :
  • 142100Z 12009KT 6000 BKN005 04/03 Q1013
  • 142030Z 11011KT 5000 BR BKN004 04/03 Q1013
  • 142000Z 10010KT 6000 BKN005 04/03 Q1013
  • 141930Z 10011KT 7000 BKN006 04/03 Q1013
  • 141900Z 11014KT 8000 BKN007 04/03 Q1013

TAF TAF EPWR
Valide du 14 à 21h jusqu'au 15 à 21h UTC


142030Z 1421/1521 11012KT 6000 BKN008
BECMG 1421/1423 2000 BR
TEMPO 1421/1509 1200 BR BKN002
PROB30 1421/1507 0300 FG OVC001
BECMG 1509/1512 12015G25KT CAVOK



MET'MAP, la Météo Aéronautique d'un coup d'oeil ! - Copyright ORBIFLY Décembre 2007 - Disclaimer

ORBIFLY MET'MAP TEAM :

Programmation & Développement : Alexandra Zaïnal
Conception & Développement : Baudouin d'Aumeries
Co-Programmation & Développement : Marc-Olivier Méhu
Soutien technique & logistique : Manuel Goepfert

Contact : metmap@orbifly.com




SOURCES & CREDITS :

   NOAA